createdAt,value
2024-01-03T00:00:44.894Z,100.00
2024-01-03T00:03:22.041Z,100.00
2024-01-03T00:05:38.716Z,100.00
2024-01-03T00:07:53.017Z,100.00
2024-01-03T00:10:30.273Z,100.00
2024-01-03T00:12:43.272Z,100.00
2024-01-03T00:14:57.372Z,100.00
2024-01-03T00:17:11.938Z,100.00
2024-01-03T00:19:24.822Z,100.00
2024-01-03T00:21:37.706Z,100.00
2024-01-03T00:23:53.100Z,100.00
2024-01-03T00:26:10.800Z,100.00
2024-01-03T00:28:26.445Z,100.00
2024-01-03T00:30:39.444Z,100.00
2024-01-03T00:33:01.809Z,100.00
2024-01-03T00:35:18.660Z,100.00
2024-01-03T00:37:36.109Z,100.00
2024-01-03T00:39:48.828Z,100.00
2024-01-03T00:42:02.247Z,100.00
2024-01-03T00:44:15.126Z,100.00
2024-01-03T00:46:27.928Z,100.00
2024-01-03T00:48:42.032Z,100.00
2024-01-03T00:50:55.424Z,100.00
2024-01-03T00:53:08.500Z,100.00
2024-01-03T00:55:21.345Z,100.00
2024-01-03T00:57:34.136Z,100.00
2024-01-03T00:59:47.124Z,100.00
2024-01-03T01:02:00.059Z,100.00
2024-01-03T01:04:14.689Z,100.00
2024-01-03T01:06:27.566Z,100.00
2024-01-03T01:08:40.402Z,100.00
2024-01-03T01:10:53.564Z,100.00
2024-01-03T01:13:06.418Z,100.00
2024-01-03T01:15:19.153Z,100.00
2024-01-03T01:17:32.011Z,100.00
2024-01-03T01:19:44.838Z,100.00
2024-01-03T01:21:57.676Z,100.00
2024-01-03T01:24:10.463Z,100.00
2024-01-03T01:26:23.363Z,100.00
2024-01-03T01:28:36.156Z,100.00
2024-01-03T01:30:49.147Z,100.00
2024-01-03T01:33:02.084Z,100.00
2024-01-03T01:35:15.830Z,100.00
2024-01-03T01:37:28.533Z,100.00
2024-01-03T01:39:41.631Z,100.00
2024-01-03T01:41:54.565Z,100.00
2024-01-03T01:44:07.353Z,100.00
2024-01-03T01:46:20.287Z,100.00
2024-01-03T01:48:33.626Z,100.00
2024-01-03T01:50:46.750Z,100.00
2024-01-03T01:52:59.679Z,100.00
2024-01-03T01:55:12.999Z,100.00
2024-01-03T01:57:26.636Z,100.00
2024-01-03T01:59:41.023Z,100.00
2024-01-03T02:01:54.351Z,100.00
2024-01-03T02:04:09.133Z,100.00
2024-01-03T02:06:23.110Z,100.00
2024-01-03T02:08:36.631Z,100.00
2024-01-03T02:10:49.394Z,100.00
2024-01-03T02:13:02.228Z,100.00
2024-01-03T02:15:17.627Z,100.00
2024-01-03T02:17:32.142Z,100.00
2024-01-03T02:19:44.913Z,100.00
2024-01-03T02:21:58.176Z,100.00
2024-01-03T02:24:10.953Z,100.00
2024-01-03T02:26:29.457Z,100.00
2024-01-03T02:28:43.319Z,100.00
2024-01-03T02:30:56.489Z,100.00
2024-01-03T02:33:09.433Z,100.00
2024-01-03T02:35:22.521Z,100.00
2024-01-03T02:37:36.441Z,100.00
2024-01-03T02:39:49.559Z,100.00
2024-01-03T02:42:02.395Z,100.00
2024-01-03T02:44:15.269Z,100.00
2024-01-03T02:46:28.022Z,100.00
2024-01-03T02:48:41.586Z,100.00
2024-01-03T02:50:54.557Z,100.00
2024-01-03T02:53:07.345Z,100.00
2024-01-03T02:55:20.200Z,100.00
2024-01-03T02:57:32.964Z,100.00
2024-01-03T02:59:45.859Z,100.00
2024-01-03T03:01:58.644Z,100.00
2024-01-03T03:04:11.389Z,100.00
2024-01-03T03:06:24.266Z,100.00
2024-01-03T03:08:37.462Z,100.00
2024-01-03T03:10:50.219Z,100.00
2024-01-03T03:13:02.959Z,100.00
2024-01-03T03:15:16.142Z,100.00
2024-01-03T03:17:28.978Z,100.00
2024-01-03T03:19:41.930Z,100.00
2024-01-03T03:21:54.763Z,100.00
2024-01-03T03:24:08.478Z,100.00
2024-01-03T03:26:21.245Z,100.00
2024-01-03T03:28:34.089Z,100.00
2024-01-03T03:30:46.841Z,100.00
2024-01-03T03:32:59.726Z,100.00
2024-01-03T03:35:13.279Z,100.00
2024-01-03T03:37:26.606Z,100.00
2024-01-03T03:39:39.366Z,100.00
2024-01-03T03:41:52.166Z,100.00
2024-01-03T03:44:05.054Z,100.00
2024-01-03T03:46:19.395Z,100.00
2024-01-03T03:48:32.846Z,100.00
2024-01-03T03:50:45.720Z,100.00
2024-01-03T03:52:58.463Z,100.00
2024-01-03T03:55:16.449Z,100.00
2024-01-03T03:57:29.394Z,100.00
2024-01-03T03:59:42.171Z,100.00
2024-01-03T04:01:55.970Z,100.00
2024-01-03T04:04:09.014Z,100.00
2024-01-03T04:06:21.825Z,100.00
2024-01-03T04:08:34.824Z,100.00
2024-01-03T04:10:47.597Z,100.00
2024-01-03T04:13:00.515Z,100.00
2024-01-03T04:15:13.328Z,100.00
2024-01-03T04:17:26.161Z,100.00
2024-01-03T04:19:39.770Z,100.00
2024-01-03T04:21:52.662Z,100.00
2024-01-03T04:24:05.668Z,100.00
2024-01-03T04:26:18.459Z,100.00
2024-01-03T04:28:31.233Z,100.00
2024-01-03T04:30:44.097Z,100.00
2024-01-03T04:32:56.887Z,100.00
2024-01-03T04:35:10.720Z,100.00
2024-01-03T04:37:23.454Z,100.00
2024-01-03T04:39:36.244Z,100.00
2024-01-03T04:41:49.149Z,100.00
2024-01-03T04:44:02.020Z,100.00
2024-01-03T04:46:14.815Z,100.00
2024-01-03T04:48:27.656Z,100.00
2024-01-03T04:50:40.673Z,100.00
2024-01-03T04:52:53.495Z,100.00
2024-01-03T04:55:06.703Z,100.00
2024-01-03T04:57:20.710Z,100.00
2024-01-03T04:59:33.749Z,100.00
2024-01-03T05:01:46.524Z,100.00
2024-01-03T05:03:59.265Z,100.00
2024-01-03T05:06:12.350Z,100.00
2024-01-03T05:08:25.234Z,100.00
2024-01-03T05:10:38.009Z,100.00
2024-01-03T05:12:51.881Z,100.00
2024-01-03T05:15:05.582Z,100.00
2024-01-03T05:17:18.553Z,100.00
2024-01-03T05:19:31.403Z,100.00
2024-01-03T05:21:44.159Z,100.00
2024-01-03T05:23:56.919Z,100.00
2024-01-03T05:26:09.767Z,100.00
2024-01-03T05:28:22.536Z,100.00
2024-01-03T05:30:35.372Z,100.00
2024-01-03T05:32:48.246Z,100.00
2024-01-03T05:35:01.045Z,100.00
2024-01-03T05:37:15.980Z,100.00
2024-01-03T05:39:28.744Z,100.00
2024-01-03T05:41:41.542Z,100.00
2024-01-03T05:43:54.345Z,100.00
2024-01-03T05:46:07.121Z,100.00
2024-01-03T05:48:20.037Z,100.00
2024-01-03T05:50:32.901Z,100.00
2024-01-03T05:52:45.679Z,100.00
2024-01-03T05:55:02.305Z,100.00
2024-01-03T05:57:15.186Z,100.00
2024-01-03T05:59:28.452Z,100.00
2024-01-03T06:01:41.297Z,100.00
2024-01-03T06:03:54.019Z,100.00
2024-01-03T06:06:07.074Z,100.00
2024-01-03T06:08:19.955Z,100.00
2024-01-03T06:10:32.779Z,100.00
2024-01-03T06:12:45.656Z,100.00
2024-01-03T06:14:58.794Z,100.00
2024-01-03T06:17:11.798Z,100.00
2024-01-03T06:19:24.856Z,100.00
2024-01-03T06:21:37.824Z,100.00
2024-01-03T06:23:50.648Z,100.00
2024-01-03T06:26:03.719Z,100.00
2024-01-03T06:28:16.485Z,100.00
2024-01-03T06:30:29.386Z,100.00
2024-01-03T06:32:42.391Z,100.00
2024-01-03T06:34:55.164Z,100.00
2024-01-03T06:37:07.868Z,100.00
2024-01-03T06:39:20.588Z,100.00
2024-01-03T06:41:33.298Z,100.00
2024-01-03T06:43:46.282Z,100.00
2024-01-03T06:45:58.992Z,100.00
2024-01-03T06:48:12.273Z,100.00
2024-01-03T06:50:25.262Z,100.00
2024-01-03T06:52:37.965Z,100.00
2024-01-03T06:54:51.661Z,100.00
2024-01-03T06:57:04.808Z,100.00
2024-01-03T06:59:18.643Z,100.00
2024-01-03T07:01:32.561Z,100.00
2024-01-03T07:03:45.624Z,100.00
2024-01-03T07:05:58.485Z,100.00
2024-01-03T07:08:11.694Z,100.00
2024-01-03T07:10:30.769Z,100.00
2024-01-03T07:12:43.507Z,100.00
2024-01-03T07:14:57.560Z,100.00
2024-01-03T07:17:10.326Z,100.00
2024-01-03T07:19:23.134Z,100.00
2024-01-03T07:21:35.989Z,100.00
2024-01-03T07:23:48.723Z,100.00
2024-01-03T07:26:01.569Z,100.00
2024-01-03T07:28:15.599Z,100.00
2024-01-03T07:30:29.437Z,100.00
2024-01-03T07:32:42.430Z,100.00
2024-01-03T07:34:55.345Z,100.00
2024-01-03T07:37:08.419Z,100.00
2024-01-03T07:39:21.629Z,100.00
2024-01-03T07:41:37.117Z,100.00
2024-01-03T07:43:50.135Z,100.00
2024-01-03T07:46:02.903Z,100.00
2024-01-03T07:48:16.565Z,100.00
2024-01-03T07:50:29.484Z,100.00
2024-01-03T07:52:45.284Z,100.00
2024-01-03T07:54:57.982Z,100.00
2024-01-03T07:57:10.720Z,100.00
2024-01-03T07:59:23.613Z,100.00
2024-01-03T08:01:36.480Z,100.00
2024-01-03T08:03:49.345Z,100.00
2024-01-03T08:06:05.011Z,100.00
2024-01-03T08:08:18.220Z,100.00
2024-01-03T08:10:30.988Z,100.00
2024-01-03T08:12:43.805Z,100.00
2024-01-03T08:14:56.751Z,100.00
2024-01-03T08:17:09.591Z,100.00
2024-01-03T08:19:22.624Z,100.00
2024-01-03T08:21:35.501Z,100.00
2024-01-03T08:23:48.288Z,100.00
2024-01-03T08:26:01.008Z,100.00
2024-01-03T08:28:13.730Z,100.00
2024-01-03T08:30:26.576Z,100.00
2024-01-03T08:32:41.885Z,100.00
2024-01-03T08:34:54.907Z,100.00
2024-01-03T08:37:07.597Z,100.00
2024-01-03T08:39:21.257Z,100.00
2024-01-03T08:41:34.267Z,100.00
2024-01-03T08:43:47.510Z,100.00
2024-01-03T08:46:05.443Z,100.00
2024-01-03T08:48:18.296Z,100.00
2024-01-03T08:50:31.498Z,100.00
2024-01-03T08:52:44.414Z,100.00
2024-01-03T08:54:57.664Z,100.00
2024-01-03T08:57:10.539Z,100.00
2024-01-03T08:59:23.443Z,100.00
2024-01-03T09:01:36.369Z,100.00
2024-01-03T09:03:49.538Z,100.00
2024-01-03T09:06:07.311Z,100.00
2024-01-03T09:08:20.118Z,100.00
2024-01-03T09:10:32.934Z,100.00
2024-01-03T09:12:45.734Z,100.00
2024-01-03T09:14:58.534Z,100.00
2024-01-03T09:17:11.364Z,100.00
2024-01-03T09:19:24.139Z,100.00
2024-01-03T09:21:43.580Z,100.00
2024-01-03T09:23:56.801Z,100.00
2024-01-03T09:26:13.243Z,100.00
2024-01-03T09:28:27.138Z,100.00
2024-01-03T09:30:40.101Z,100.00
2024-01-03T09:32:53.051Z,100.00
2024-01-03T09:35:06.352Z,100.00
2024-01-03T09:37:19.172Z,100.00
2024-01-03T09:39:31.881Z,100.00
2024-01-03T09:41:45.606Z,100.00
2024-01-03T09:43:58.978Z,100.00
2024-01-03T09:46:12.309Z,100.00
2024-01-03T09:48:25.198Z,100.00
2024-01-03T09:50:39.691Z,100.00
2024-01-03T09:52:56.542Z,100.00
2024-01-03T09:55:10.960Z,100.00
2024-01-03T09:57:24.923Z,100.00
2024-01-03T09:59:37.726Z,100.00
2024-01-03T10:02:00.106Z,100.00
2024-01-03T10:04:13.153Z,100.00
2024-01-03T10:06:29.031Z,100.00
2024-01-03T10:08:42.432Z,100.00
2024-01-03T10:10:55.199Z,100.00
2024-01-03T10:13:22.513Z,100.00
2024-01-03T10:15:37.206Z,100.00
2024-01-03T10:17:50.168Z,100.00
2024-01-03T10:20:23.981Z,100.00
2024-01-03T10:22:36.785Z,100.00
2024-01-03T10:24:49.522Z,100.00
2024-01-03T10:27:12.421Z,97.59
2024-01-03T10:29:25.655Z,90.21
2024-01-03T10:31:38.568Z,86.68
2024-01-03T10:33:59.210Z,84.46
2024-01-03T10:36:16.366Z,82.75
2024-01-03T10:38:30.278Z,81.93
2024-01-03T10:40:43.105Z,81.06
2024-01-03T10:42:56.508Z,79.99
2024-01-03T10:45:10.156Z,79.41
2024-01-03T10:47:23.271Z,78.39
2024-01-03T10:49:36.175Z,78.68
2024-01-03T10:51:56.321Z,79.23
2024-01-03T10:54:11.484Z,79.00
2024-01-03T10:56:24.270Z,79.50
2024-01-03T10:58:40.862Z,79.00
2024-01-03T11:01:07.527Z,79.09
2024-01-03T11:03:45.046Z,79.06
2024-01-03T11:06:09.439Z,79.51
2024-01-03T11:08:28.489Z,79.59
2024-01-03T11:10:49.733Z,78.67
2024-01-03T11:13:02.696Z,78.67
2024-01-03T11:15:33.697Z,77.50
2024-01-03T11:17:53.882Z,77.75
2024-01-03T11:20:08.657Z,76.90
2024-01-03T11:22:21.445Z,76.14
2024-01-03T11:24:34.180Z,76.60
2024-01-03T11:26:57.156Z,76.38
2024-01-03T11:29:09.977Z,75.94
2024-01-03T11:31:59.356Z,76.17
2024-01-03T11:34:49.204Z,75.99
2024-01-03T11:37:02.024Z,75.65
2024-01-03T11:39:51.100Z,75.86
2024-01-03T11:42:04.304Z,75.82
2024-01-03T11:44:23.019Z,75.01
2024-01-03T11:46:35.794Z,74.84
2024-01-03T11:48:48.669Z,74.35
2024-01-03T11:51:01.492Z,73.99
2024-01-03T11:53:17.291Z,74.19
2024-01-03T11:55:30.061Z,73.77
2024-01-03T11:57:47.764Z,73.29
2024-01-03T12:00:01.468Z,73.22
2024-01-03T12:02:15.297Z,72.80
2024-01-03T12:04:28.802Z,72.98
2024-01-03T12:06:41.767Z,72.62
2024-01-03T12:08:54.636Z,72.38
2024-01-03T12:11:07.438Z,72.57
2024-01-03T12:13:20.196Z,72.75
2024-01-03T12:15:38.804Z,72.82
2024-01-03T12:18:09.547Z,73.35
2024-01-03T12:20:22.674Z,73.97
2024-01-03T12:22:36.346Z,74.82
2024-01-03T12:24:49.030Z,75.19
2024-01-03T12:27:01.829Z,75.56
2024-01-03T12:29:14.945Z,75.88
2024-01-03T12:31:27.792Z,76.28
2024-01-03T12:33:40.763Z,76.55
2024-01-03T12:35:55.110Z,76.75
2024-01-03T12:38:08.070Z,77.14
2024-01-03T12:40:21.090Z,77.72
2024-01-03T12:42:39.886Z,78.28
2024-01-03T12:44:55.601Z,79.00
2024-01-03T12:47:12.776Z,79.39
2024-01-03T12:49:26.194Z,80.20
2024-01-03T12:51:44.214Z,80.98
2024-01-03T12:54:00.051Z,81.84
2024-01-03T12:56:12.780Z,82.23
2024-01-03T12:58:25.581Z,82.80
2024-01-03T13:00:38.430Z,83.47
2024-01-03T13:02:51.258Z,83.41
2024-01-03T13:05:04.878Z,83.90
2024-01-03T13:07:18.014Z,83.94
2024-01-03T13:09:30.881Z,84.36
2024-01-03T13:11:43.696Z,84.58
2024-01-03T13:13:56.478Z,84.59
2024-01-03T13:16:09.265Z,84.94
2024-01-03T13:18:22.743Z,84.90
2024-01-03T13:20:35.676Z,85.02
2024-01-03T13:22:48.429Z,85.33
2024-01-03T13:25:01.174Z,85.40
2024-01-03T13:27:15.078Z,85.95
2024-01-03T13:29:27.929Z,86.34
2024-01-03T13:31:40.744Z,86.59
2024-01-03T13:33:53.735Z,87.19
2024-01-03T13:36:07.198Z,87.87
2024-01-03T13:38:20.019Z,88.14
2024-01-03T13:40:33.028Z,88.64
2024-01-03T13:42:45.760Z,88.93
2024-01-03T13:44:59.513Z,89.10
2024-01-03T13:47:12.405Z,88.89
2024-01-03T13:49:25.391Z,88.95
2024-01-03T13:51:38.382Z,89.09
2024-01-03T13:53:51.375Z,89.59
2024-01-03T13:56:05.472Z,90.19
2024-01-03T13:58:18.222Z,90.91
2024-01-03T14:00:31.342Z,91.53
2024-01-03T14:02:44.600Z,92.43
2024-01-03T14:04:57.388Z,93.08
2024-01-03T14:07:10.250Z,93.83
2024-01-03T14:09:23.107Z,94.28
2024-01-03T14:11:35.852Z,94.48
2024-01-03T14:13:49.164Z,95.29
2024-01-03T14:16:02.382Z,95.78
2024-01-03T14:18:15.302Z,96.44
2024-01-03T14:20:29.268Z,97.53
2024-01-03T14:22:44.101Z,98.97
2024-01-03T14:24:56.879Z,99.42
2024-01-03T14:27:09.668Z,100.00
2024-01-03T14:29:22.477Z,100.00
2024-01-03T14:31:35.194Z,100.00
2024-01-03T14:33:48.340Z,100.00
2024-01-03T14:36:01.290Z,100.00
2024-01-03T14:38:14.207Z,100.00
2024-01-03T14:40:29.811Z,100.00
2024-01-03T14:42:48.706Z,100.00
2024-01-03T14:45:02.944Z,100.00
2024-01-03T14:47:15.899Z,100.00
2024-01-03T14:49:29.060Z,100.00
2024-01-03T14:51:41.889Z,100.00
2024-01-03T14:53:54.707Z,100.00
2024-01-03T14:56:09.807Z,100.00
2024-01-03T14:58:27.221Z,100.00
2024-01-03T15:00:39.996Z,100.00
2024-01-03T15:03:03.557Z,100.00
2024-01-03T15:05:20.099Z,100.00
2024-01-03T15:07:32.864Z,100.00
2024-01-03T15:09:45.649Z,100.00
2024-01-03T15:11:59.384Z,100.00
2024-01-03T15:14:16.535Z,100.00
2024-01-03T15:16:29.577Z,100.00
2024-01-03T15:18:42.477Z,100.00
2024-01-03T15:20:55.447Z,100.00
2024-01-03T15:23:09.714Z,100.00
2024-01-03T15:25:22.751Z,100.00
2024-01-03T15:27:35.949Z,100.00
2024-01-03T15:29:48.721Z,100.00
2024-01-03T15:32:02.023Z,100.00
2024-01-03T15:34:14.900Z,100.00
2024-01-03T15:36:28.004Z,100.00
2024-01-03T15:38:40.820Z,100.00
2024-01-03T15:40:53.847Z,100.00
2024-01-03T15:43:06.929Z,100.00
2024-01-03T15:45:19.930Z,100.00
2024-01-03T15:47:32.754Z,100.00
2024-01-03T15:49:45.542Z,100.00
2024-01-03T15:52:01.562Z,100.00
2024-01-03T15:54:15.570Z,100.00
2024-01-03T15:56:29.540Z,100.00
2024-01-03T15:58:42.241Z,100.00
2024-01-03T16:00:55.448Z,100.00
2024-01-03T16:03:08.579Z,100.00
2024-01-03T16:05:21.799Z,100.00
2024-01-03T16:07:34.555Z,100.00
2024-01-03T16:09:50.227Z,100.00
2024-01-03T16:12:04.172Z,100.00
2024-01-03T16:14:19.944Z,100.00
2024-01-03T16:16:39.821Z,100.00
2024-01-03T16:18:52.672Z,100.00
2024-01-03T16:21:05.993Z,100.00
2024-01-03T16:23:18.663Z,100.00
2024-01-03T16:25:31.342Z,100.00
2024-01-03T16:27:46.345Z,100.00
2024-01-03T16:29:59.123Z,100.00
2024-01-03T16:32:12.138Z,100.00
2024-01-03T16:34:29.437Z,100.00
2024-01-03T16:36:42.442Z,100.00
2024-01-03T16:38:55.189Z,100.00
2024-01-03T16:41:08.978Z,100.00
2024-01-03T16:43:21.710Z,100.00
2024-01-03T16:45:35.413Z,100.00
2024-01-03T16:47:48.332Z,100.00
2024-01-03T16:50:01.280Z,100.00
2024-01-03T16:52:14.371Z,100.00
2024-01-03T16:54:28.361Z,100.00
2024-01-03T16:56:44.404Z,100.00
2024-01-03T16:59:00.163Z,100.00
2024-01-03T17:01:14.290Z,100.00
2024-01-03T17:03:28.264Z,100.00
2024-01-03T17:05:41.304Z,100.00
2024-01-03T17:07:54.012Z,100.00
2024-01-03T17:10:07.658Z,100.00
2024-01-03T17:12:20.606Z,100.00
2024-01-03T17:14:33.483Z,100.00
2024-01-03T17:16:47.122Z,100.00
2024-01-03T17:19:00.423Z,100.00
2024-01-03T17:21:15.749Z,100.00
2024-01-03T17:23:28.538Z,100.00
2024-01-03T17:25:41.370Z,100.00
2024-01-03T17:27:54.095Z,100.00
2024-01-03T17:30:12.610Z,100.00
2024-01-03T17:32:27.548Z,100.00
2024-01-03T17:34:40.791Z,100.00
2024-01-03T17:36:53.639Z,100.00
2024-01-03T17:39:11.464Z,100.00
2024-01-03T17:41:27.178Z,100.00
2024-01-03T17:43:40.368Z,100.00
2024-01-03T17:45:53.063Z,100.00
2024-01-03T17:48:06.441Z,100.00
2024-01-03T17:50:19.655Z,100.00
2024-01-03T17:52:32.439Z,100.00
2024-01-03T17:54:45.234Z,100.00
2024-01-03T17:56:58.025Z,100.00
2024-01-03T17:59:11.870Z,100.00
2024-01-03T18:01:25.044Z,100.00
2024-01-03T18:03:38.074Z,100.00
2024-01-03T18:05:51.151Z,100.00
2024-01-03T18:08:04.218Z,100.00
2024-01-03T18:10:17.102Z,100.00
2024-01-03T18:12:29.805Z,100.00
2024-01-03T18:14:42.591Z,100.00
2024-01-03T18:17:05.396Z,100.00
2024-01-03T18:19:18.189Z,100.00
2024-01-03T18:21:30.941Z,100.00
2024-01-03T18:23:44.683Z,100.00
2024-01-03T18:25:57.370Z,100.00
2024-01-03T18:28:10.344Z,100.00
2024-01-03T18:30:24.107Z,100.00
2024-01-03T18:32:37.336Z,100.00
2024-01-03T18:34:50.297Z,100.00
2024-01-03T18:37:03.133Z,100.00
2024-01-03T18:39:15.872Z,100.00
2024-01-03T18:41:29.881Z,100.00
2024-01-03T18:43:42.707Z,100.00
2024-01-03T18:45:55.511Z,100.00
2024-01-03T18:48:11.454Z,100.00
2024-01-03T18:50:25.203Z,100.00
2024-01-03T18:52:38.376Z,100.00
2024-01-03T18:54:51.575Z,100.00
2024-01-03T18:57:04.607Z,100.00
2024-01-03T18:59:17.711Z,100.00
2024-01-03T19:01:30.519Z,100.00
2024-01-03T19:03:43.253Z,100.00
2024-01-03T19:05:55.997Z,100.00
2024-01-03T19:08:09.012Z,100.00
2024-01-03T19:10:22.000Z,100.00
2024-01-03T19:12:34.743Z,100.00
2024-01-03T19:14:47.485Z,100.00
2024-01-03T19:17:00.662Z,100.00
2024-01-03T19:19:13.495Z,100.00
2024-01-03T19:21:26.550Z,100.00
2024-01-03T19:23:39.442Z,100.00
2024-01-03T19:25:52.154Z,100.00
2024-01-03T19:28:05.153Z,100.00
2024-01-03T19:30:17.995Z,100.00
2024-01-03T19:32:32.588Z,100.00
2024-01-03T19:34:45.742Z,100.00
2024-01-03T19:36:58.834Z,100.00
2024-01-03T19:39:12.170Z,100.00
2024-01-03T19:41:24.984Z,100.00
2024-01-03T19:43:37.692Z,100.00
2024-01-03T19:45:50.876Z,100.00
2024-01-03T19:48:04.828Z,100.00
2024-01-03T19:50:17.663Z,100.00
2024-01-03T19:52:30.399Z,100.00
2024-01-03T19:54:43.212Z,100.00
2024-01-03T19:56:55.970Z,100.00
2024-01-03T19:59:09.157Z,100.00
2024-01-03T20:01:22.466Z,100.00
2024-01-03T20:03:35.364Z,100.00
2024-01-03T20:05:48.211Z,100.00
2024-01-03T20:08:02.012Z,100.00
2024-01-03T20:10:14.963Z,100.00
2024-01-03T20:12:27.706Z,100.00
2024-01-03T20:14:40.426Z,100.00
2024-01-03T20:16:53.124Z,100.00
2024-01-03T20:19:06.016Z,100.00
2024-01-03T20:21:18.975Z,100.00
2024-01-03T20:23:31.733Z,100.00
2024-01-03T20:25:44.525Z,100.00
2024-01-03T20:27:57.318Z,100.00
2024-01-03T20:30:14.663Z,100.00
2024-01-03T20:32:27.621Z,100.00
2024-01-03T20:34:40.732Z,100.00
2024-01-03T20:36:53.500Z,100.00
2024-01-03T20:39:07.314Z,100.00
2024-01-03T20:41:23.500Z,100.00
2024-01-03T20:43:37.561Z,100.00
2024-01-03T20:45:50.734Z,100.00
2024-01-03T20:48:05.341Z,100.00
2024-01-03T20:50:18.174Z,100.00
2024-01-03T20:52:31.050Z,100.00
2024-01-03T20:54:44.111Z,100.00
2024-01-03T20:56:56.844Z,100.00
2024-01-03T20:59:09.811Z,100.00
2024-01-03T21:01:22.574Z,100.00
2024-01-03T21:03:39.345Z,100.00
2024-01-03T21:05:52.135Z,100.00
2024-01-03T21:08:05.173Z,100.00
2024-01-03T21:10:17.925Z,100.00
2024-01-03T21:12:30.722Z,100.00
2024-01-03T21:14:43.510Z,100.00
2024-01-03T21:16:56.222Z,100.00
2024-01-03T21:19:09.025Z,100.00
2024-01-03T21:21:21.801Z,100.00
2024-01-03T21:23:34.555Z,100.00
2024-01-03T21:25:47.254Z,100.00
2024-01-03T21:28:00.083Z,100.00
2024-01-03T21:30:13.393Z,100.00
2024-01-03T21:32:26.204Z,100.00
2024-01-03T21:34:38.995Z,100.00
2024-01-03T21:36:51.749Z,100.00
2024-01-03T21:39:07.239Z,100.00
2024-01-03T21:41:20.093Z,100.00
2024-01-03T21:43:32.796Z,100.00
2024-01-03T21:45:45.601Z,100.00
2024-01-03T21:47:58.747Z,100.00
2024-01-03T21:50:11.975Z,100.00
2024-01-03T21:52:24.747Z,100.00
2024-01-03T21:54:37.429Z,100.00
2024-01-03T21:56:50.227Z,100.00
2024-01-03T21:59:03.395Z,100.00
2024-01-03T22:01:16.165Z,100.00
2024-01-03T22:03:28.976Z,100.00
2024-01-03T22:05:41.886Z,100.00
2024-01-03T22:07:54.660Z,100.00
2024-01-03T22:10:12.632Z,100.00
2024-01-03T22:12:25.516Z,100.00
2024-01-03T22:14:47.109Z,100.00
2024-01-03T22:17:00.202Z,100.00
2024-01-03T22:19:13.158Z,100.00
2024-01-03T22:21:26.945Z,100.00
2024-01-03T22:23:40.047Z,100.00
2024-01-03T22:25:53.456Z,100.00
2024-01-03T22:28:06.423Z,100.00
2024-01-03T22:30:19.562Z,100.00
2024-01-03T22:32:32.498Z,100.00
2024-01-03T22:34:45.353Z,100.00
2024-01-03T22:36:58.106Z,100.00
2024-01-03T22:39:11.032Z,100.00
2024-01-03T22:41:23.858Z,100.00
2024-01-03T22:43:36.679Z,100.00
2024-01-03T22:45:49.446Z,100.00
2024-01-03T22:48:02.600Z,100.00
2024-01-03T22:50:15.414Z,100.00
2024-01-03T22:52:28.379Z,100.00
2024-01-03T22:54:41.064Z,100.00
2024-01-03T22:56:53.855Z,100.00
2024-01-03T22:59:06.725Z,100.00
2024-01-03T23:01:19.550Z,100.00
2024-01-03T23:03:32.771Z,100.00
2024-01-03T23:05:45.547Z,100.00
2024-01-03T23:07:58.263Z,100.00
2024-01-03T23:10:11.030Z,100.00
2024-01-03T23:12:23.767Z,100.00
2024-01-03T23:14:36.521Z,100.00
2024-01-03T23:16:49.357Z,100.00
2024-01-03T23:19:02.855Z,100.00
2024-01-03T23:21:17.267Z,100.00
2024-01-03T23:23:36.822Z,100.00
2024-01-03T23:25:53.171Z,100.00
2024-01-03T23:28:06.025Z,100.00
2024-01-03T23:30:22.677Z,100.00
2024-01-03T23:32:35.665Z,100.00
2024-01-03T23:34:48.470Z,100.00
2024-01-03T23:37:01.308Z,100.00
2024-01-03T23:39:14.167Z,100.00
2024-01-03T23:41:27.728Z,100.00
2024-01-03T23:43:40.439Z,100.00
2024-01-03T23:45:53.210Z,100.00
2024-01-03T23:48:06.637Z,100.00
2024-01-03T23:50:19.716Z,100.00
2024-01-03T23:52:32.445Z,100.00
2024-01-03T23:54:45.118Z,100.00
2024-01-03T23:56:57.824Z,100.00
2024-01-03T23:59:10.564Z,100.00
